sensor_id;sensor_type;location;lat;lon;timestamp;temperature;humidity
63317;DHT22;49822;41.468;13.560;2023-04-07T00:00:11;6.60;79.10
63317;DHT22;49822;41.468;13.560;2023-04-07T00:02:39;6.70;79.20
63317;DHT22;49822;41.468;13.560;2023-04-07T00:05:10;6.70;78.80
63317;DHT22;49822;41.468;13.560;2023-04-07T00:07:38;6.70;78.30
63317;DHT22;49822;41.468;13.560;2023-04-07T00:10:21;6.90;78.30
63317;DHT22;49822;41.468;13.560;2023-04-07T00:12:49;6.80;78.40
63317;DHT22;49822;41.468;13.560;2023-04-07T00:15:18;6.50;78.60
63317;DHT22;49822;41.468;13.560;2023-04-07T00:17:50;6.80;78.60
63317;DHT22;49822;41.468;13.560;2023-04-07T00:20:18;6.90;78.10
63317;DHT22;49822;41.468;13.560;2023-04-07T00:22:46;6.70;78.00
63317;DHT22;49822;41.468;13.560;2023-04-07T00:25:14;6.60;77.90
63317;DHT22;49822;41.468;13.560;2023-04-07T00:27:41;6.60;78.60
63317;DHT22;49822;41.468;13.560;2023-04-07T00:30:09;6.30;79.40
63317;DHT22;49822;41.468;13.560;2023-04-07T00:32:37;6.10;79.90
63317;DHT22;49822;41.468;13.560;2023-04-07T00:35:04;6.00;80.80
63317;DHT22;49822;41.468;13.560;2023-04-07T00:37:32;6.00;80.80
63317;DHT22;49822;41.468;13.560;2023-04-07T00:39:59;5.80;80.50
63317;DHT22;49822;41.468;13.560;2023-04-07T00:42:27;5.90;80.90
63317;DHT22;49822;41.468;13.560;2023-04-07T00:44:54;5.90;80.50
63317;DHT22;49822;41.468;13.560;2023-04-07T00:47:22;6.00;79.90
63317;DHT22;49822;41.468;13.560;2023-04-07T00:49:49;6.30;80.00
63317;DHT22;49822;41.468;13.560;2023-04-07T00:52:17;6.40;79.70
63317;DHT22;49822;41.468;13.560;2023-04-07T00:54:45;6.30;79.40
63317;DHT22;49822;41.468;13.560;2023-04-07T00:57:13;6.60;79.20
63317;DHT22;49822;41.468;13.560;2023-04-07T00:59:41;6.30;79.40
63317;DHT22;49822;41.468;13.560;2023-04-07T01:02:10;6.30;79.70
63317;DHT22;49822;41.468;13.560;2023-04-07T01:10:15;6.00;80.40
63317;DHT22;49822;41.468;13.560;2023-04-07T01:13:05;6.10;80.70
63317;DHT22;49822;41.468;13.560;2023-04-07T01:15:39;6.00;80.40
63317;DHT22;49822;41.468;13.560;2023-04-07T01:18:16;6.00;80.20
63317;DHT22;49822;41.468;13.560;2023-04-07T01:20:49;6.30;79.40
63317;DHT22;49822;41.468;13.560;2023-04-07T01:23:38;6.10;80.30
63317;DHT22;49822;41.468;13.560;2023-04-07T01:26:29;6.20;79.70
63317;DHT22;49822;41.468;13.560;2023-04-07T01:31:59;6.30;79.40
63317;DHT22;49822;41.468;13.560;2023-04-07T01:34:30;6.40;79.20
63317;DHT22;49822;41.468;13.560;2023-04-07T01:37:00;6.30;79.00
63317;DHT22;49822;41.468;13.560;2023-04-07T01:39:28;5.80;79.80
63317;DHT22;49822;41.468;13.560;2023-04-07T01:41:57;5.80;81.10
63317;DHT22;49822;41.468;13.560;2023-04-07T01:44:25;5.60;81.60
63317;DHT22;49822;41.468;13.560;2023-04-07T01:46:53;5.40;82.10
63317;DHT22;49822;41.468;13.560;2023-04-07T01:49:22;5.30;82.50
63317;DHT22;49822;41.468;13.560;2023-04-07T01:51:51;5.20;82.90
63317;DHT22;49822;41.468;13.560;2023-04-07T01:54:20;5.40;82.00
63317;DHT22;49822;41.468;13.560;2023-04-07T01:56:49;5.30;81.40
63317;DHT22;49822;41.468;13.560;2023-04-07T01:59:16;5.50;81.20
63317;DHT22;49822;41.468;13.560;2023-04-07T02:01:45;5.70;80.70
63317;DHT22;49822;41.468;13.560;2023-04-07T02:07:06;5.90;79.60
63317;DHT22;49822;41.468;13.560;2023-04-07T02:09:42;5.70;79.30
63317;DHT22;49822;41.468;13.560;2023-04-07T02:12:12;5.70;79.60
63317;DHT22;49822;41.468;13.560;2023-04-07T02:14:49;5.90;80.00
63317;DHT22;49822;41.468;13.560;2023-04-07T02:17:18;5.80;79.80
63317;DHT22;49822;41.468;13.560;2023-04-07T02:19:46;5.90;79.70
63317;DHT22;49822;41.468;13.560;2023-04-07T02:22:14;5.60;80.10
63317;DHT22;49822;41.468;13.560;2023-04-07T02:24:42;5.70;80.00
63317;DHT22;49822;41.468;13.560;2023-04-07T02:27:09;5.80;80.00
63317;DHT22;49822;41.468;13.560;2023-04-07T02:29:37;5.80;79.70
63317;DHT22;49822;41.468;13.560;2023-04-07T02:32:05;5.70;79.50
63317;DHT22;49822;41.468;13.560;2023-04-07T02:34:32;5.80;79.60
63317;DHT22;49822;41.468;13.560;2023-04-07T02:36:59;5.70;80.10
63317;DHT22;49822;41.468;13.560;2023-04-07T02:39:27;5.60;80.30
63317;DHT22;49822;41.468;13.560;2023-04-07T02:41:54;5.40;80.30
63317;DHT22;49822;41.468;13.560;2023-04-07T02:44:22;5.60;80.10
63317;DHT22;49822;41.468;13.560;2023-04-07T02:46:49;5.70;79.80
63317;DHT22;49822;41.468;13.560;2023-04-07T02:49:17;5.70;79.70
63317;DHT22;49822;41.468;13.560;2023-04-07T02:51:44;5.60;79.50
63317;DHT22;49822;41.468;13.560;2023-04-07T02:54:13;5.80;79.30
63317;DHT22;49822;41.468;13.560;2023-04-07T02:56:40;5.50;79.50
63317;DHT22;49822;41.468;13.560;2023-04-07T02:59:08;5.50;79.70
63317;DHT22;49822;41.468;13.560;2023-04-07T03:01:40;5.60;80.20
63317;DHT22;49822;41.468;13.560;2023-04-07T03:04:08;5.50;79.60
63317;DHT22;49822;41.468;13.560;2023-04-07T03:06:36;5.50;79.60
63317;DHT22;49822;41.468;13.560;2023-04-07T03:09:13;5.70;79.60
63317;DHT22;49822;41.468;13.560;2023-04-07T03:11:41;5.30;79.90
63317;DHT22;49822;41.468;13.560;2023-04-07T03:14:09;5.10;80.70
63317;DHT22;49822;41.468;13.560;2023-04-07T03:16:44;5.00;80.70
63317;DHT22;49822;41.468;13.560;2023-04-07T03:19:12;5.10;80.60
63317;DHT22;49822;41.468;13.560;2023-04-07T03:21:43;5.20;80.60
63317;DHT22;49822;41.468;13.560;2023-04-07T03:24:10;5.30;80.50
63317;DHT22;49822;41.468;13.560;2023-04-07T03:26:38;5.20;80.40
63317;DHT22;49822;41.468;13.560;2023-04-07T03:29:13;5.30;80.20
63317;DHT22;49822;41.468;13.560;2023-04-07T03:31:42;5.20;80.40
63317;DHT22;49822;41.468;13.560;2023-04-07T03:34:13;4.80;81.80
63317;DHT22;49822;41.468;13.560;2023-04-07T03:36:40;4.40;83.10
63317;DHT22;49822;41.468;13.560;2023-04-07T03:39:08;4.60;83.20
63317;DHT22;49822;41.468;13.560;2023-04-07T03:41:35;4.40;83.00
63317;DHT22;49822;41.468;13.560;2023-04-07T03:44:04;4.70;82.40
63317;DHT22;49822;41.468;13.560;2023-04-07T03:46:34;4.80;81.70
63317;DHT22;49822;41.468;13.560;2023-04-07T03:49:03;5.00;81.40
63317;DHT22;49822;41.468;13.560;2023-04-07T03:51:32;4.90;81.10
63317;DHT22;49822;41.468;13.560;2023-04-07T03:54:02;4.70;81.40
63317;DHT22;49822;41.468;13.560;2023-04-07T03:56:35;4.80;81.50
63317;DHT22;49822;41.468;13.560;2023-04-07T03:59:04;4.80;81.50
63317;DHT22;49822;41.468;13.560;2023-04-07T04:01:35;4.90;81.10
63317;DHT22;49822;41.468;13.560;2023-04-07T04:04:09;5.00;80.70
63317;DHT22;49822;41.468;13.560;2023-04-07T04:06:37;5.10;80.40
63317;DHT22;49822;41.468;13.560;2023-04-07T04:09:14;5.00;80.00
63317;DHT22;49822;41.468;13.560;2023-04-07T04:11:45;5.00;79.90
63317;DHT22;49822;41.468;13.560;2023-04-07T04:14:14;4.90;79.90
63317;DHT22;49822;41.468;13.560;2023-04-07T04:16:47;4.90;80.00
63317;DHT22;49822;41.468;13.560;2023-04-07T04:19:44;4.60;80.90
63317;DHT22;49822;41.468;13.560;2023-04-07T04:22:20;4.80;80.70
63317;DHT22;49822;41.468;13.560;2023-04-07T04:24:52;4.60;81.00
63317;DHT22;49822;41.468;13.560;2023-04-07T04:27:22;4.40;81.60
63317;DHT22;49822;41.468;13.560;2023-04-07T04:29:57;4.40;81.70
63317;DHT22;49822;41.468;13.560;2023-04-07T04:32:36;4.50;81.70
63317;DHT22;49822;41.468;13.560;2023-04-07T04:35:06;4.50;81.60
63317;DHT22;49822;41.468;13.560;2023-04-07T04:37:41;4.40;81.00
63317;DHT22;49822;41.468;13.560;2023-04-07T04:40:11;4.50;81.60
63317;DHT22;49822;41.468;13.560;2023-04-07T04:42:39;4.30;82.10
63317;DHT22;49822;41.468;13.560;2023-04-07T04:45:09;4.20;82.50
63317;DHT22;49822;41.468;13.560;2023-04-07T04:47:40;4.40;82.40
63317;DHT22;49822;41.468;13.560;2023-04-07T04:50:10;4.30;82.40
63317;DHT22;49822;41.468;13.560;2023-04-07T04:52:40;4.00;82.90
63317;DHT22;49822;41.468;13.560;2023-04-07T04:55:14;3.90;84.30
63317;DHT22;49822;41.468;13.560;2023-04-07T04:57:43;3.80;84.40
63317;DHT22;49822;41.468;13.560;2023-04-07T05:00:14;4.00;83.90
63317;DHT22;49822;41.468;13.560;2023-04-07T05:02:47;4.10;83.60
63317;DHT22;49822;41.468;13.560;2023-04-07T05:05:15;4.30;83.70
63317;DHT22;49822;41.468;13.560;2023-04-07T05:07:43;4.60;82.40
63317;DHT22;49822;41.468;13.560;2023-04-07T05:10:13;4.80;82.10
63317;DHT22;49822;41.468;13.560;2023-04-07T05:12:46;4.90;81.80
63317;DHT22;49822;41.468;13.560;2023-04-07T05:15:14;4.90;81.40
63317;DHT22;49822;41.468;13.560;2023-04-07T05:17:46;4.80;81.00
63317;DHT22;49822;41.468;13.560;2023-04-07T05:20:22;5.20;80.70
63317;DHT22;49822;41.468;13.560;2023-04-07T05:22:51;5.20;80.50
63317;DHT22;49822;41.468;13.560;2023-04-07T05:25:24;5.40;80.90
63317;DHT22;49822;41.468;13.560;2023-04-07T05:27:57;5.30;81.00
63317;DHT22;49822;41.468;13.560;2023-04-07T05:30:26;5.40;81.50
63317;DHT22;49822;41.468;13.560;2023-04-07T05:32:57;5.30;82.10
63317;DHT22;49822;41.468;13.560;2023-04-07T05:35:56;5.40;81.60
63317;DHT22;49822;41.468;13.560;2023-04-07T05:38:25;5.50;81.30
63317;DHT22;49822;41.468;13.560;2023-04-07T05:40:57;5.70;81.10
63317;DHT22;49822;41.468;13.560;2023-04-07T05:43:29;5.80;80.80
63317;DHT22;49822;41.468;13.560;2023-04-07T05:45:57;5.90;80.60
63317;DHT22;49822;41.468;13.560;2023-04-07T05:48:24;6.00;80.40
63317;DHT22;49822;41.468;13.560;2023-04-07T05:50:54;6.00;80.00
63317;DHT22;49822;41.468;13.560;2023-04-07T05:53:21;6.10;79.90
63317;DHT22;49822;41.468;13.560;2023-04-07T05:55:50;6.10;79.90
63317;DHT22;49822;41.468;13.560;2023-04-07T05:58:33;6.30;79.80
63317;DHT22;49822;41.468;13.560;2023-04-07T06:01:01;6.40;79.90
63317;DHT22;49822;41.468;13.560;2023-04-07T06:03:28;6.40;79.80
63317;DHT22;49822;41.468;13.560;2023-04-07T06:06:16;6.40;80.00
63317;DHT22;49822;41.468;13.560;2023-04-07T06:08:44;6.60;79.60
63317;DHT22;49822;41.468;13.560;2023-04-07T06:11:13;6.70;79.90
63317;DHT22;49822;41.468;13.560;2023-04-07T06:13:42;6.80;79.60
63317;DHT22;49822;41.468;13.560;2023-04-07T06:16:10;6.90;79.80
63317;DHT22;49822;41.468;13.560;2023-04-07T06:18:37;6.90;79.50
63317;DHT22;49822;41.468;13.560;2023-04-07T06:21:05;7.10;79.20
63317;DHT22;49822;41.468;13.560;2023-04-07T06:23:33;7.30;79.90
63317;DHT22;49822;41.468;13.560;2023-04-07T06:26:00;7.50;79.60
63317;DHT22;49822;41.468;13.560;2023-04-07T06:28:28;7.50;79.50
63317;DHT22;49822;41.468;13.560;2023-04-07T06:30:57;7.60;79.10
63317;DHT22;49822;41.468;13.560;2023-04-07T06:33:26;7.80;78.70
63317;DHT22;49822;41.468;13.560;2023-04-07T06:35:55;8.00;78.80
63317;DHT22;49822;41.468;13.560;2023-04-07T06:38:23;8.00;78.60
63317;DHT22;49822;41.468;13.560;2023-04-07T06:40:51;8.20;78.50
63317;DHT22;49822;41.468;13.560;2023-04-07T06:43:18;8.30;78.50
63317;DHT22;49822;41.468;13.560;2023-04-07T06:45:55;8.50;78.40
63317;DHT22;49822;41.468;13.560;2023-04-07T06:48:22;8.60;78.70
63317;DHT22;49822;41.468;13.560;2023-04-07T06:50:50;8.70;78.30
63317;DHT22;49822;41.468;13.560;2023-04-07T06:53:18;8.60;78.00
63317;DHT22;49822;41.468;13.560;2023-04-07T06:55:45;8.80;78.20
63317;DHT22;49822;41.468;13.560;2023-04-07T06:58:13;9.00;77.80
63317;DHT22;49822;41.468;13.560;2023-04-07T07:00:41;9.10;77.80
63317;DHT22;49822;41.468;13.560;2023-04-07T07:03:09;9.20;77.40
63317;DHT22;49822;41.468;13.560;2023-04-07T07:05:37;9.30;77.30
63317;DHT22;49822;41.468;13.560;2023-04-07T07:08:04;9.50;76.90
63317;DHT22;49822;41.468;13.560;2023-04-07T07:10:32;9.50;76.80
63317;DHT22;49822;41.468;13.560;2023-04-07T07:12:59;9.80;76.30
63317;DHT22;49822;41.468;13.560;2023-04-07T07:15:27;9.80;76.30
63317;DHT22;49822;41.468;13.560;2023-04-07T07:17:57;9.90;76.50
63317;DHT22;49822;41.468;13.560;2023-04-07T07:20:25;10.00;75.30
63317;DHT22;49822;41.468;13.560;2023-04-07T07:22:53;10.10;75.30
63317;DHT22;49822;41.468;13.560;2023-04-07T07:25:21;10.20;74.90
63317;DHT22;49822;41.468;13.560;2023-04-07T07:27:48;10.40;74.80
63317;DHT22;49822;41.468;13.560;2023-04-07T07:30:22;10.60;74.30
63317;DHT22;49822;41.468;13.560;2023-04-07T07:32:54;10.60;74.60
63317;DHT22;49822;41.468;13.560;2023-04-07T07:35:22;10.80;74.10
63317;DHT22;49822;41.468;13.560;2023-04-07T07:37:51;10.80;75.30
63317;DHT22;49822;41.468;13.560;2023-04-07T07:40:19;10.90;75.50
63317;DHT22;49822;41.468;13.560;2023-04-07T07:42:46;11.00;74.80
63317;DHT22;49822;41.468;13.560;2023-04-07T07:45:13;11.30;74.00
63317;DHT22;49822;41.468;13.560;2023-04-07T07:47:43;11.30;74.10
63317;DHT22;49822;41.468;13.560;2023-04-07T07:50:11;11.50;74.10
63317;DHT22;49822;41.468;13.560;2023-04-07T07:52:38;11.70;73.60
63317;DHT22;49822;41.468;13.560;2023-04-07T07:55:08;11.70;73.20
63317;DHT22;49822;41.468;13.560;2023-04-07T07:57:36;11.90;72.70
63317;DHT22;49822;41.468;13.560;2023-04-07T08:00:07;11.90;72.10
63317;DHT22;49822;41.468;13.560;2023-04-07T08:02:39;11.90;71.60
63317;DHT22;49822;41.468;13.560;2023-04-07T08:05:09;12.10;71.10
63317;DHT22;49822;41.468;13.560;2023-04-07T08:07:50;12.20;71.30
63317;DHT22;49822;41.468;13.560;2023-04-07T08:10:53;12.60;69.70
63317;DHT22;49822;41.468;13.560;2023-04-07T08:13:21;12.70;69.30
63317;DHT22;49822;41.468;13.560;2023-04-07T08:15:49;12.80;69.50
63317;DHT22;49822;41.468;13.560;2023-04-07T08:22:12;13.10;68.50
63317;DHT22;49822;41.468;13.560;2023-04-07T08:24:40;13.30;68.50
63317;DHT22;49822;41.468;13.560;2023-04-07T08:27:07;13.40;68.40
63317;DHT22;49822;41.468;13.560;2023-04-07T08:29:34;13.40;68.40
63317;DHT22;49822;41.468;13.560;2023-04-07T08:32:02;13.40;67.20
63317;DHT22;49822;41.468;13.560;2023-04-07T08:34:29;13.60;68.30
63317;DHT22;49822;41.468;13.560;2023-04-07T08:36:57;13.60;67.80
63317;DHT22;49822;41.468;13.560;2023-04-07T08:39:24;13.60;66.70
63317;DHT22;49822;41.468;13.560;2023-04-07T08:41:52;13.70;66.20
63317;DHT22;49822;41.468;13.560;2023-04-07T08:44:21;13.80;67.30
63317;DHT22;49822;41.468;13.560;2023-04-07T08:46:50;14.00;65.10
63317;DHT22;49822;41.468;13.560;2023-04-07T08:49:20;14.00;65.80
63317;DHT22;49822;41.468;13.560;2023-04-07T08:51:49;14.10;65.80
63317;DHT22;49822;41.468;13.560;2023-04-07T08:54:18;14.30;65.60
63317;DHT22;49822;41.468;13.560;2023-04-07T08:56:47;14.30;65.30
63317;DHT22;49822;41.468;13.560;2023-04-07T08:59:15;14.30;65.40
63317;DHT22;49822;41.468;13.560;2023-04-07T09:01:51;14.30;64.50
63317;DHT22;49822;41.468;13.560;2023-04-07T09:04:20;14.40;66.20
63317;DHT22;49822;41.468;13.560;2023-04-07T09:06:49;14.60;65.30
63317;DHT22;49822;41.468;13.560;2023-04-07T09:09:17;14.50;65.10
63317;DHT22;49822;41.468;13.560;2023-04-07T09:11:46;14.60;65.00
63317;DHT22;49822;41.468;13.560;2023-04-07T09:14:14;14.60;64.30
63317;DHT22;49822;41.468;13.560;2023-04-07T09:16:42;14.70;64.60
63317;DHT22;49822;41.468;13.560;2023-04-07T09:19:10;14.80;64.30
63317;DHT22;49822;41.468;13.560;2023-04-07T09:21:48;14.80;64.10
63317;DHT22;49822;41.468;13.560;2023-04-07T09:24:26;14.80;64.30
63317;DHT22;49822;41.468;13.560;2023-04-07T09:27:13;15.00;65.00
63317;DHT22;49822;41.468;13.560;2023-04-07T09:29:45;15.30;64.90
63317;DHT22;49822;41.468;13.560;2023-04-07T09:32:44;15.30;63.50
63317;DHT22;49822;41.468;13.560;2023-04-07T09:35:11;15.50;63.00
63317;DHT22;49822;41.468;13.560;2023-04-07T09:37:38;15.70;63.50
63317;DHT22;49822;41.468;13.560;2023-04-07T09:40:08;15.90;63.40
63317;DHT22;49822;41.468;13.560;2023-04-07T09:42:47;16.00;62.20
63317;DHT22;49822;41.468;13.560;2023-04-07T09:45:25;16.00;63.00
63317;DHT22;49822;41.468;13.560;2023-04-07T09:48:06;16.20;62.10
63317;DHT22;49822;41.468;13.560;2023-04-07T09:50:44;16.30;61.30
63317;DHT22;49822;41.468;13.560;2023-04-07T09:53:15;16.40;60.70
63317;DHT22;49822;41.468;13.560;2023-04-07T09:55:44;16.50;60.60
63317;DHT22;49822;41.468;13.560;2023-04-07T09:58:12;16.70;60.00
63317;DHT22;49822;41.468;13.560;2023-04-07T10:00:42;16.80;59.60
63317;DHT22;49822;41.468;13.560;2023-04-07T10:03:10;17.20;59.50
63317;DHT22;49822;41.468;13.560;2023-04-07T10:05:38;17.30;60.10
63317;DHT22;49822;41.468;13.560;2023-04-07T10:08:06;17.70;60.20
63317;DHT22;49822;41.468;13.560;2023-04-07T10:10:34;17.60;57.70
63317;DHT22;49822;41.468;13.560;2023-04-07T10:13:04;17.80;58.40
63317;DHT22;49822;41.468;13.560;2023-04-07T10:15:35;18.00;57.70
63317;DHT22;49822;41.468;13.560;2023-04-07T10:18:06;18.20;56.90
63317;DHT22;49822;41.468;13.560;2023-04-07T10:20:38;18.20;56.10
63317;DHT22;49822;41.468;13.560;2023-04-07T10:26:18;18.40;55.10
63317;DHT22;49822;41.468;13.560;2023-04-07T10:28:50;17.90;55.30
63317;DHT22;49822;41.468;13.560;2023-04-07T10:31:20;17.40;55.40
63317;DHT22;49822;41.468;13.560;2023-04-07T10:33:52;17.20;57.00
63317;DHT22;49822;41.468;13.560;2023-04-07T10:36:21;16.80;56.80
63317;DHT22;49822;41.468;13.560;2023-04-07T10:39:18;16.70;56.70
63317;DHT22;49822;41.468;13.560;2023-04-07T10:41:46;16.40;57.60
63317;DHT22;49822;41.468;13.560;2023-04-07T10:47:07;16.70;57.80
63317;DHT22;49822;41.468;13.560;2023-04-07T10:49:35;17.20;58.20
63317;DHT22;49822;41.468;13.560;2023-04-07T10:54:39;18.10;57.10
63317;DHT22;49822;41.468;13.560;2023-04-07T10:57:10;18.00;54.50
63317;DHT22;49822;41.468;13.560;2023-04-07T10:59:40;18.00;53.70
63317;DHT22;49822;41.468;13.560;2023-04-07T11:04:42;17.80;52.40
63317;DHT22;49822;41.468;13.560;2023-04-07T11:07:12;17.30;51.60
63317;DHT22;49822;41.468;13.560;2023-04-07T11:09:40;17.50;53.00
63317;DHT22;49822;41.468;13.560;2023-04-07T11:12:08;17.60;51.80
63317;DHT22;49822;41.468;13.560;2023-04-07T11:14:48;17.40;51.50
63317;DHT22;49822;41.468;13.560;2023-04-07T11:17:16;17.20;54.30
63317;DHT22;49822;41.468;13.560;2023-04-07T11:19:52;17.00;53.70
63317;DHT22;49822;41.468;13.560;2023-04-07T11:22:20;17.20;54.80
63317;DHT22;49822;41.468;13.560;2023-04-07T11:24:56;17.40;55.20
63317;DHT22;49822;41.468;13.560;2023-04-07T11:27:25;17.20;53.20
63317;DHT22;49822;41.468;13.560;2023-04-07T11:29:55;17.50;54.10
63317;DHT22;49822;41.468;13.560;2023-04-07T11:32:23;17.80;54.60
63317;DHT22;49822;41.468;13.560;2023-04-07T11:34:56;18.00;53.60
63317;DHT22;49822;41.468;13.560;2023-04-07T11:37:25;17.70;53.30
63317;DHT22;49822;41.468;13.560;2023-04-07T11:39:56;17.80;53.80
63317;DHT22;49822;41.468;13.560;2023-04-07T11:42:34;17.70;52.70
63317;DHT22;49822;41.468;13.560;2023-04-07T11:45:02;18.00;53.50
63317;DHT22;49822;41.468;13.560;2023-04-07T11:47:36;18.40;52.30
63317;DHT22;49822;41.468;13.560;2023-04-07T11:50:06;17.90;52.10
63317;DHT22;49822;41.468;13.560;2023-04-07T11:52:44;17.90;53.30
63317;DHT22;49822;41.468;13.560;2023-04-07T11:55:19;18.10;53.00
63317;DHT22;49822;41.468;13.560;2023-04-07T11:57:50;18.10;54.70
63317;DHT22;49822;41.468;13.560;2023-04-07T12:00:20;18.10;55.20
63317;DHT22;49822;41.468;13.560;2023-04-07T12:02:51;18.00;55.10
63317;DHT22;49822;41.468;13.560;2023-04-07T12:05:19;18.20;54.30
63317;DHT22;49822;41.468;13.560;2023-04-07T12:07:53;18.10;55.00
63317;DHT22;49822;41.468;13.560;2023-04-07T12:10:23;18.00;54.40
63317;DHT22;49822;41.468;13.560;2023-04-07T12:12:54;17.70;54.60
63317;DHT22;49822;41.468;13.560;2023-04-07T12:15:26;17.80;54.60
63317;DHT22;49822;41.468;13.560;2023-04-07T12:17:55;17.50;54.60
63317;DHT22;49822;41.468;13.560;2023-04-07T12:20:23;17.50;55.60
63317;DHT22;49822;41.468;13.560;2023-04-07T12:22:51;17.70;55.10
63317;DHT22;49822;41.468;13.560;2023-04-07T12:25:18;17.80;55.50
63317;DHT22;49822;41.468;13.560;2023-04-07T12:27:46;17.90;54.10
63317;DHT22;49822;41.468;13.560;2023-04-07T12:30:14;17.70;53.90
63317;DHT22;49822;41.468;13.560;2023-04-07T12:32:43;17.80;54.80
63317;DHT22;49822;41.468;13.560;2023-04-07T12:35:11;17.50;55.50
63317;DHT22;49822;41.468;13.560;2023-04-07T12:37:39;17.50;55.20
63317;DHT22;49822;41.468;13.560;2023-04-07T12:40:07;17.30;53.80
63317;DHT22;49822;41.468;13.560;2023-04-07T12:42:34;17.50;55.40
63317;DHT22;49822;41.468;13.560;2023-04-07T12:45:02;17.20;53.60
63317;DHT22;49822;41.468;13.560;2023-04-07T12:47:31;17.20;54.20
63317;DHT22;49822;41.468;13.560;2023-04-07T12:50:00;17.20;53.80
63317;DHT22;49822;41.468;13.560;2023-04-07T12:52:28;17.10;54.60
63317;DHT22;49822;41.468;13.560;2023-04-07T12:54:56;17.20;53.60
63317;DHT22;49822;41.468;13.560;2023-04-07T12:57:24;17.20;53.00
63317;DHT22;49822;41.468;13.560;2023-04-07T12:59:52;17.40;54.10
63317;DHT22;49822;41.468;13.560;2023-04-07T13:02:20;17.10;53.30
63317;DHT22;49822;41.468;13.560;2023-04-07T13:04:48;17.20;53.00
63317;DHT22;49822;41.468;13.560;2023-04-07T13:07:17;17.40;53.40
63317;DHT22;49822;41.468;13.560;2023-04-07T13:09:44;17.00;53.20
63317;DHT22;49822;41.468;13.560;2023-04-07T13:12:11;17.20;53.60
63317;DHT22;49822;41.468;13.560;2023-04-07T13:14:40;17.20;54.30
63317;DHT22;49822;41.468;13.560;2023-04-07T13:17:23;17.10;54.10
63317;DHT22;49822;41.468;13.560;2023-04-07T13:19:50;17.20;54.60
63317;DHT22;49822;41.468;13.560;2023-04-07T13:22:18;17.20;54.90
63317;DHT22;49822;41.468;13.560;2023-04-07T13:24:50;17.30;55.30
63317;DHT22;49822;41.468;13.560;2023-04-07T13:27:17;17.30;55.70
63317;DHT22;49822;41.468;13.560;2023-04-07T13:29:45;17.20;58.10
63317;DHT22;49822;41.468;13.560;2023-04-07T13:32:12;17.10;56.90
63317;DHT22;49822;41.468;13.560;2023-04-07T13:34:40;16.90;57.50
63317;DHT22;49822;41.468;13.560;2023-04-07T13:37:08;16.90;57.20
63317;DHT22;49822;41.468;13.560;2023-04-07T13:39:36;16.90;56.90
63317;DHT22;49822;41.468;13.560;2023-04-07T13:42:05;16.70;56.50
63317;DHT22;49822;41.468;13.560;2023-04-07T13:44:32;16.60;58.10
63317;DHT22;49822;41.468;13.560;2023-04-07T13:47:00;16.50;57.40
63317;DHT22;49822;41.468;13.560;2023-04-07T13:49:29;16.60;60.10
63317;DHT22;49822;41.468;13.560;2023-04-07T13:51:57;16.40;58.30
63317;DHT22;49822;41.468;13.560;2023-04-07T13:54:24;16.10;58.00
63317;DHT22;49822;41.468;13.560;2023-04-07T13:56:52;16.20;57.70
63317;DHT22;49822;41.468;13.560;2023-04-07T13:59:20;16.40;58.90
63317;DHT22;49822;41.468;13.560;2023-04-07T14:01:47;16.30;58.00
63317;DHT22;49822;41.468;13.560;2023-04-07T14:04:16;16.10;58.00
63317;DHT22;49822;41.468;13.560;2023-04-07T14:06:43;15.90;59.20
63317;DHT22;49822;41.468;13.560;2023-04-07T14:09:11;15.90;58.30
63317;DHT22;49822;41.468;13.560;2023-04-07T14:11:38;15.90;59.00
63317;DHT22;49822;41.468;13.560;2023-04-07T14:14:06;15.80;58.70
63317;DHT22;49822;41.468;13.560;2023-04-07T14:16:33;16.10;58.90
63317;DHT22;49822;41.468;13.560;2023-04-07T14:19:01;15.90;59.50
63317;DHT22;49822;41.468;13.560;2023-04-07T14:21:28;16.10;59.70
63317;DHT22;49822;41.468;13.560;2023-04-07T14:23:58;16.10;60.00
63317;DHT22;49822;41.468;13.560;2023-04-07T14:26:26;16.00;60.00
63317;DHT22;49822;41.468;13.560;2023-04-07T14:28:54;16.00;60.90
63317;DHT22;49822;41.468;13.560;2023-04-07T14:31:22;15.90;60.50
63317;DHT22;49822;41.468;13.560;2023-04-07T14:33:49;15.80;60.90
63317;DHT22;49822;41.468;13.560;2023-04-07T14:36:17;16.00;60.60
63317;DHT22;49822;41.468;13.560;2023-04-07T14:38:44;15.90;59.50
63317;DHT22;49822;41.468;13.560;2023-04-07T14:41:12;15.70;59.20
63317;DHT22;49822;41.468;13.560;2023-04-07T14:43:39;15.80;59.00
63317;DHT22;49822;41.468;13.560;2023-04-07T14:46:07;16.00;59.50
63317;DHT22;49822;41.468;13.560;2023-04-07T14:48:35;15.90;60.60
63317;DHT22;49822;41.468;13.560;2023-04-07T14:51:02;15.90;59.80
63317;DHT22;49822;41.468;13.560;2023-04-07T14:53:36;16.00;60.60
63317;DHT22;49822;41.468;13.560;2023-04-07T14:56:05;16.00;61.10
63317;DHT22;49822;41.468;13.560;2023-04-07T14:58:33;16.00;61.60
63317;DHT22;49822;41.468;13.560;2023-04-07T15:01:04;15.70;63.20
63317;DHT22;49822;41.468;13.560;2023-04-07T15:03:32;15.60;63.00
63317;DHT22;49822;41.468;13.560;2023-04-07T15:06:10;15.70;63.50
63317;DHT22;49822;41.468;13.560;2023-04-07T15:08:39;15.70;64.00
63317;DHT22;49822;41.468;13.560;2023-04-07T15:11:07;15.60;64.40
63317;DHT22;49822;41.468;13.560;2023-04-07T15:13:35;15.50;64.50
63317;DHT22;49822;41.468;13.560;2023-04-07T15:16:10;15.70;64.20
63317;DHT22;49822;41.468;13.560;2023-04-07T15:18:40;15.70;65.20
63317;DHT22;49822;41.468;13.560;2023-04-07T15:21:09;15.60;65.60
63317;DHT22;49822;41.468;13.560;2023-04-07T15:23:37;15.70;65.60
63317;DHT22;49822;41.468;13.560;2023-04-07T15:26:05;15.40;66.00
63317;DHT22;49822;41.468;13.560;2023-04-07T15:28:33;15.30;66.50
63317;DHT22;49822;41.468;13.560;2023-04-07T15:31:00;15.20;67.50
63317;DHT22;49822;41.468;13.560;2023-04-07T15:33:28;15.20;66.90
63317;DHT22;49822;41.468;13.560;2023-04-07T15:35:56;15.40;66.10
63317;DHT22;49822;41.468;13.560;2023-04-07T15:38:26;15.60;65.80
63317;DHT22;49822;41.468;13.560;2023-04-07T15:40:54;15.50;65.70
63317;DHT22;49822;41.468;13.560;2023-04-07T15:43:21;15.40;65.30
63317;DHT22;49822;41.468;13.560;2023-04-07T15:45:49;15.60;65.20
63317;DHT22;49822;41.468;13.560;2023-04-07T15:48:17;15.70;65.00
63317;DHT22;49822;41.468;13.560;2023-04-07T15:50:45;15.70;64.60
63317;DHT22;49822;41.468;13.560;2023-04-07T15:53:13;15.50;65.10
63317;DHT22;49822;41.468;13.560;2023-04-07T15:55:40;15.40;65.30
63317;DHT22;49822;41.468;13.560;2023-04-07T15:58:10;15.50;65.10
63317;DHT22;49822;41.468;13.560;2023-04-07T16:00:38;15.70;65.00
63317;DHT22;49822;41.468;13.560;2023-04-07T16:03:25;15.70;65.00
63317;DHT22;49822;41.468;13.560;2023-04-07T16:06:13;16.00;63.80